createdAt,value
2022-09-13T00:01:16.383Z,9.60
2022-09-13T00:03:43.694Z,9.70
2022-09-13T00:06:18.376Z,9.70
2022-09-13T00:08:46.617Z,9.60
2022-09-13T00:11:18.960Z,9.70
2022-09-13T00:13:47.573Z,9.60
2022-09-13T00:16:18.501Z,9.60
2022-09-13T00:18:46.273Z,9.60
2022-09-13T00:21:17.381Z,9.60
2022-09-13T00:23:50.866Z,9.70
2022-09-13T00:26:28.013Z,9.60
2022-09-13T00:28:58.503Z,9.60
2022-09-13T00:31:28.350Z,9.70
2022-09-13T00:33:58.417Z,9.70
2022-09-13T00:36:25.663Z,9.70
2022-09-13T00:38:53.002Z,9.60
2022-09-13T00:41:21.886Z,9.70
2022-09-13T00:43:57.498Z,9.70
2022-09-13T00:46:42.520Z,9.50
2022-09-13T00:49:27.926Z,9.50
2022-09-13T00:52:07.328Z,9.40
2022-09-13T00:54:42.852Z,9.50
2022-09-13T00:57:13.025Z,9.50
2022-09-13T01:00:02.955Z,9.50
2022-09-13T01:02:30.957Z,9.50
2022-09-13T01:04:58.517Z,9.40
2022-09-13T01:07:25.795Z,9.30
2022-09-13T01:09:54.017Z,9.20
2022-09-13T01:12:49.249Z,9.30
2022-09-13T01:15:16.400Z,9.20
2022-09-13T01:17:44.351Z,9.30
2022-09-13T01:20:13.016Z,9.40
2022-09-13T01:22:48.808Z,9.50
2022-09-13T01:25:34.186Z,9.40
2022-09-13T01:28:24.495Z,9.30
2022-09-13T01:31:10.123Z,9.30
2022-09-13T01:33:54.905Z,9.30
2022-09-13T01:36:56.832Z,9.20
2022-09-13T01:39:52.378Z,9.20
2022-09-13T01:42:59.475Z,9.10
2022-09-13T01:46:06.208Z,9.20
2022-09-13T01:49:19.986Z,9.30
2022-09-13T01:52:16.542Z,9.30
2022-09-13T01:55:02.209Z,9.20
2022-09-13T01:58:05.992Z,9.10
2022-09-13T02:00:59.966Z,9.20
2022-09-13T02:03:37.795Z,9.20
2022-09-13T02:06:17.310Z,9.20
2022-09-13T02:08:55.216Z,9.20
2022-09-13T02:11:24.066Z,9.20
2022-09-13T02:14:21.375Z,9.30
2022-09-13T02:17:01.489Z,9.20
2022-09-13T02:20:10.170Z,9.20
2022-09-13T02:22:46.149Z,9.20
2022-09-13T02:25:19.528Z,9.10
2022-09-13T02:27:53.315Z,9.10
2022-09-13T02:30:20.851Z,9.10
2022-09-13T02:33:08.309Z,9.00
2022-09-13T02:35:54.734Z,9.00
2022-09-13T02:38:43.349Z,9.00
2022-09-13T02:44:06.468Z,8.90
2022-09-13T02:47:31.894Z,8.80
2022-09-13T02:50:16.033Z,8.70
2022-09-13T02:53:04.052Z,8.70
2022-09-13T02:55:54.987Z,8.70
2022-09-13T02:58:29.168Z,8.80
2022-09-13T03:00:56.628Z,8.80
2022-09-13T03:03:25.113Z,8.70
2022-09-13T03:05:53.773Z,8.70
2022-09-13T03:08:24.457Z,8.60
2022-09-13T03:11:05.982Z,8.40
2022-09-13T03:14:20.469Z,8.40
2022-09-13T03:17:15.648Z,8.40
2022-09-13T03:20:24.570Z,8.40
2022-09-13T03:23:35.990Z,8.40
2022-09-13T03:26:46.462Z,8.40
2022-09-13T03:29:58.949Z,8.40
2022-09-13T03:33:13.802Z,8.30
2022-09-13T03:35:50.863Z,8.40
2022-09-13T03:39:00.618Z,8.30
2022-09-13T03:41:39.507Z,8.30
2022-09-13T03:44:16.912Z,8.30
2022-09-13T03:49:20.205Z,8.10
2022-09-13T03:51:51.296Z,8.20
2022-09-13T03:54:32.363Z,8.20
2022-09-13T03:57:18.459Z,8.30
2022-09-13T03:59:52.688Z,8.20
2022-09-13T04:02:22.050Z,8.20
2022-09-13T04:04:49.623Z,8.20
2022-09-13T04:07:23.113Z,8.10
2022-09-13T04:09:50.463Z,8.20
2022-09-13T04:12:18.999Z,8.10
2022-09-13T04:14:46.222Z,8.10
2022-09-13T04:17:14.730Z,8.10
2022-09-13T04:19:42.983Z,8.20
2022-09-13T04:22:10.168Z,8.20
2022-09-13T04:24:37.282Z,8.10
2022-09-13T04:27:04.694Z,8.20
2022-09-13T04:29:32.022Z,8.20
2022-09-13T04:31:59.904Z,8.30
2022-09-13T04:34:27.224Z,8.40
2022-09-13T04:36:54.596Z,8.40
2022-09-13T04:39:22.502Z,8.40
2022-09-13T04:41:51.385Z,8.40
2022-09-13T04:44:18.874Z,8.30
2022-09-13T04:46:50.212Z,8.40
2022-09-13T04:49:18.886Z,8.30
2022-09-13T04:51:49.056Z,8.40
2022-09-13T04:54:16.586Z,8.30
2022-09-13T04:56:45.522Z,8.40
2022-09-13T04:59:13.315Z,8.30
2022-09-13T05:01:41.071Z,8.20
2022-09-13T05:04:09.796Z,8.20
2022-09-13T05:06:37.663Z,8.20
2022-09-13T05:09:05.717Z,8.20
2022-09-13T05:11:33.335Z,8.20
2022-09-13T05:14:01.396Z,8.30
2022-09-13T05:16:32.228Z,8.30
2022-09-13T05:19:00.972Z,8.30
2022-09-13T05:21:29.334Z,8.40
2022-09-13T05:23:58.036Z,8.30
2022-09-13T05:26:28.131Z,8.40
2022-09-13T05:28:55.319Z,8.40
2022-09-13T05:31:30.671Z,8.50
2022-09-13T05:34:14.195Z,8.50
2022-09-13T05:36:42.557Z,8.50
2022-09-13T05:42:02.625Z,8.50
2022-09-13T05:44:29.937Z,8.50
2022-09-13T05:46:57.084Z,8.50
2022-09-13T05:49:24.265Z,8.50
2022-09-13T05:51:51.496Z,8.60
2022-09-13T05:54:18.619Z,8.60
2022-09-13T05:56:45.909Z,8.70
2022-09-13T05:59:14.020Z,8.70
2022-09-13T06:01:41.420Z,8.60
2022-09-13T06:04:08.845Z,8.60
2022-09-13T06:06:36.100Z,8.60
2022-09-13T06:09:03.603Z,8.70
2022-09-13T06:11:31.539Z,8.70
2022-09-13T06:13:58.778Z,8.90
2022-09-13T06:16:26.300Z,9.00
2022-09-13T06:18:53.564Z,9.10
2022-09-13T06:21:28.231Z,9.10
2022-09-13T06:23:56.388Z,9.30
2022-09-13T06:26:27.395Z,9.30
2022-09-13T06:28:57.685Z,9.40
2022-09-13T06:31:28.409Z,9.60
2022-09-13T06:34:01.607Z,9.70
2022-09-13T06:36:29.341Z,9.80
2022-09-13T06:38:56.471Z,9.90
2022-09-13T06:41:25.143Z,10.10
2022-09-13T06:43:58.873Z,10.20
2022-09-13T06:46:29.420Z,10.30
2022-09-13T06:49:01.493Z,10.40
2022-09-13T06:51:37.585Z,10.50
2022-09-13T06:54:05.511Z,10.50
2022-09-13T06:56:38.653Z,10.60
2022-09-13T06:59:10.884Z,10.70
2022-09-13T07:01:42.323Z,10.80
2022-09-13T07:04:18.596Z,10.90
2022-09-13T07:06:49.240Z,11.00
2022-09-13T07:09:22.178Z,11.70
2022-09-13T07:11:54.725Z,11.20
2022-09-13T07:14:28.096Z,11.30
2022-09-13T07:16:56.124Z,11.40
2022-09-13T07:19:26.319Z,11.50
2022-09-13T07:21:55.965Z,11.50
2022-09-13T07:24:24.068Z,11.60
2022-09-13T07:26:51.834Z,11.70
2022-09-13T07:29:22.831Z,11.70
2022-09-13T07:31:55.406Z,11.80
2022-09-13T07:34:25.736Z,11.90
2022-09-13T07:36:53.800Z,12.00
2022-09-13T07:39:22.996Z,12.00
2022-09-13T07:41:52.136Z,12.10
2022-09-13T07:44:19.445Z,12.00
2022-09-13T07:46:46.672Z,12.20
2022-09-13T07:49:19.434Z,12.20
2022-09-13T07:51:46.702Z,12.30
2022-09-13T07:54:18.126Z,12.40
2022-09-13T07:56:46.199Z,12.50
2022-09-13T07:59:16.746Z,12.50
2022-09-13T08:01:48.040Z,12.60
2022-09-13T08:04:19.235Z,12.60
2022-09-13T08:06:47.717Z,12.70
2022-09-13T08:09:16.481Z,12.70
2022-09-13T08:11:53.606Z,12.90
2022-09-13T08:14:23.191Z,12.90
2022-09-13T08:16:51.225Z,13.00
2022-09-13T08:19:19.502Z,13.00
2022-09-13T08:21:47.811Z,13.10
2022-09-13T08:24:22.530Z,13.30
2022-09-13T08:26:50.452Z,13.30
2022-09-13T08:29:17.780Z,13.30
2022-09-13T08:31:45.308Z,13.30
2022-09-13T08:34:17.376Z,13.40
2022-09-13T08:36:45.120Z,13.50
2022-09-13T08:39:13.191Z,13.60
2022-09-13T08:41:40.357Z,13.70
2022-09-13T08:44:43.049Z,13.70
2022-09-13T08:47:39.761Z,13.80
2022-09-13T08:50:23.777Z,13.90
2022-09-13T08:53:08.560Z,13.90
2022-09-13T08:56:23.270Z,14.10
2022-09-13T08:59:16.430Z,14.30
2022-09-13T09:02:41.290Z,14.30
2022-09-13T09:05:31.136Z,14.40
2022-09-13T09:08:22.750Z,14.40
2022-09-13T09:13:53.928Z,14.50
2022-09-13T09:16:48.446Z,14.60
2022-09-13T09:19:33.036Z,14.50
2022-09-13T09:22:04.437Z,14.70
2022-09-13T09:24:37.527Z,14.70
2022-09-13T09:27:16.643Z,14.80
2022-09-13T09:29:46.026Z,14.80
2022-09-13T09:32:52.920Z,15.00
2022-09-13T09:36:07.623Z,15.00
2022-09-13T09:38:42.617Z,15.10
2022-09-13T09:41:32.439Z,15.10
2022-09-13T09:44:22.506Z,15.30
2022-09-13T09:47:13.505Z,15.30
2022-09-13T09:49:55.986Z,15.30
2022-09-13T09:53:07.550Z,15.40
2022-09-13T09:55:58.625Z,15.50
2022-09-13T09:58:46.604Z,15.50
2022-09-13T10:01:28.090Z,15.70
2022-09-13T10:04:19.722Z,15.90
2022-09-13T10:06:47.103Z,15.90
2022-09-13T11:26:23.733Z,19.70
2022-09-13T11:29:31.067Z,24.40
2022-09-13T11:32:19.125Z,24.40
2022-09-13T11:35:29.593Z,24.30
2022-09-13T11:38:21.687Z,24.20
2022-09-13T11:41:03.327Z,23.80
2022-09-13T11:43:36.079Z,23.60
2022-09-13T11:46:21.577Z,23.50
2022-09-13T11:48:58.955Z,23.60
2022-09-13T11:51:47.137Z,23.80
2022-09-13T11:54:55.203Z,24.30
2022-09-13T11:57:32.886Z,24.50
2022-09-13T12:00:15.527Z,24.40
2022-09-13T12:08:22.868Z,25.90
2022-09-13T12:11:04.802Z,26.00
2022-09-13T12:14:02.659Z,26.20
2022-09-13T12:16:40.650Z,26.10
2022-09-13T12:19:29.123Z,25.70
2022-09-13T12:22:01.086Z,26.00
2022-09-13T12:24:53.612Z,26.10
2022-09-13T12:27:47.497Z,26.20
2022-09-13T12:30:19.643Z,26.10
2022-09-13T12:32:49.403Z,26.00
2022-09-13T12:36:11.136Z,26.10
2022-09-13T12:39:19.416Z,26.10
2022-09-13T12:42:23.825Z,26.10
2022-09-13T12:45:16.123Z,25.80
2022-09-13T12:48:09.928Z,25.80
2022-09-13T12:51:07.510Z,25.70
2022-09-13T12:54:04.153Z,25.60
2022-09-13T12:57:25.874Z,25.60
2022-09-13T13:00:24.114Z,25.60
2022-09-13T13:03:04.824Z,25.60
2022-09-13T13:05:41.427Z,25.50
2022-09-13T13:08:30.656Z,25.60
2022-09-13T13:11:14.343Z,25.60
2022-09-13T13:13:53.368Z,25.60
2022-09-13T13:16:28.616Z,25.60
2022-09-13T13:19:02.737Z,25.40
2022-09-13T13:21:39.646Z,25.50
2022-09-13T13:24:27.794Z,25.50
2022-09-13T13:26:59.455Z,25.40
2022-09-13T13:29:30.463Z,25.30
2022-09-13T13:31:57.672Z,25.40
2022-09-13T13:34:51.050Z,25.50
2022-09-13T13:37:18.163Z,25.60
2022-09-13T13:39:48.871Z,25.50
2022-09-13T13:42:31.507Z,25.70
2022-09-13T13:45:01.439Z,25.70
2022-09-13T13:47:29.123Z,25.70
2022-09-13T13:50:17.415Z,25.80
2022-09-13T13:52:47.384Z,25.90
2022-09-13T13:55:43.348Z,26.00
2022-09-13T13:58:16.170Z,26.10
2022-09-13T14:00:51.218Z,26.30
2022-09-13T14:03:55.032Z,26.30
2022-09-13T14:07:00.475Z,26.40
2022-09-13T14:09:57.766Z,26.50
2022-09-13T14:12:36.695Z,26.60
2022-09-13T14:15:28.880Z,26.50
2022-09-13T14:18:27.156Z,26.50
2022-09-13T14:21:03.452Z,26.40
2022-09-13T14:23:31.809Z,25.80
2022-09-13T14:26:01.101Z,25.20
2022-09-13T14:28:28.761Z,24.80
2022-09-13T14:30:59.856Z,24.40
2022-09-13T14:33:33.569Z,24.10
2022-09-13T14:36:20.646Z,23.90
2022-09-13T14:38:57.235Z,23.90
2022-09-13T14:41:38.456Z,23.70
2022-09-13T14:44:28.934Z,23.70
2022-09-13T14:47:21.207Z,23.60
2022-09-13T14:49:59.957Z,22.80
2022-09-13T14:52:35.511Z,23.80
2022-09-13T14:55:23.993Z,24.40
2022-09-13T14:58:00.378Z,24.50
2022-09-13T15:00:28.711Z,25.00
2022-09-13T15:03:01.392Z,25.20
2022-09-13T15:05:34.045Z,25.50
2022-09-13T15:08:43.063Z,25.50
2022-09-13T15:11:35.309Z,25.40
2022-09-13T15:14:35.027Z,25.20
2022-09-13T15:17:13.637Z,25.20
2022-09-13T15:19:50.523Z,25.20
2022-09-13T15:22:25.013Z,25.30
2022-09-13T15:25:03.666Z,25.30
2022-09-13T15:27:47.508Z,24.90
2022-09-13T15:30:26.372Z,24.20
2022-09-13T15:33:11.921Z,23.90
2022-09-13T15:35:47.608Z,23.50
2022-09-13T15:38:31.146Z,23.50
2022-09-13T15:41:13.502Z,23.60
2022-09-13T15:43:40.785Z,23.80
2022-09-13T15:46:15.473Z,23.80
2022-09-13T15:48:56.779Z,23.80
2022-09-13T15:51:24.054Z,24.00
2022-09-13T15:53:52.085Z,24.10
2022-09-13T15:56:31.617Z,24.20
2022-09-13T15:58:59.218Z,24.20
2022-09-13T16:01:26.739Z,24.10
2022-09-13T16:03:54.340Z,24.10
2022-09-13T16:06:24.557Z,23.90
2022-09-13T16:08:51.984Z,23.60
2022-09-13T16:11:19.232Z,23.20
2022-09-13T16:13:46.398Z,23.00
2022-09-13T16:16:16.409Z,22.70
2022-09-13T16:18:43.820Z,22.50
2022-09-13T16:21:11.064Z,22.30
2022-09-13T16:23:38.226Z,22.10
2022-09-13T16:26:06.139Z,22.00
2022-09-13T16:28:33.436Z,21.90
2022-09-13T16:31:00.761Z,21.80
2022-09-13T16:33:28.043Z,21.70
2022-09-13T16:35:58.012Z,21.50
2022-09-13T16:38:28.749Z,21.40
2022-09-13T16:40:55.851Z,21.20
2022-09-13T16:43:23.303Z,21.10
2022-09-13T16:45:52.814Z,21.00
2022-09-13T16:48:19.940Z,20.90
2022-09-13T16:50:47.084Z,20.80
2022-09-13T16:53:14.250Z,20.80
2022-09-13T16:55:41.510Z,20.60
2022-09-13T16:58:09.007Z,20.60
2022-09-13T17:00:36.141Z,20.50
2022-09-13T17:03:03.837Z,20.40
2022-09-13T17:05:31.047Z,20.20
2022-09-13T17:07:58.287Z,20.10
2022-09-13T17:10:25.528Z,20.00
2022-09-13T17:12:52.767Z,19.90
2022-09-13T17:15:20.054Z,19.90
2022-09-13T17:17:47.321Z,19.90
2022-09-13T17:20:14.691Z,19.80
2022-09-13T17:22:41.950Z,19.70
2022-09-13T17:25:10.616Z,19.60
2022-09-13T17:27:37.981Z,19.50
2022-09-13T17:30:06.312Z,19.50
2022-09-13T17:32:33.662Z,19.50
2022-09-13T17:35:00.833Z,19.50
2022-09-13T17:39:55.730Z,19.40
2022-09-13T17:42:23.633Z,19.20
2022-09-13T17:44:51.215Z,19.20
2022-09-13T17:47:18.361Z,19.20
2022-09-13T17:49:45.636Z,19.10
2022-09-13T17:52:12.805Z,19.60
2022-09-13T17:54:40.072Z,19.00
2022-09-13T17:57:07.675Z,19.00
2022-09-13T17:59:34.819Z,18.60
2022-09-13T18:02:02.334Z,18.90
2022-09-13T18:04:29.769Z,18.80
2022-09-13T18:06:57.064Z,18.70
2022-09-13T18:09:24.315Z,18.70
2022-09-13T18:11:51.821Z,18.60
2022-09-13T18:14:20.783Z,18.60
2022-09-13T18:16:48.429Z,18.50
2022-09-13T18:19:44.956Z,18.50
2022-09-13T18:22:12.317Z,18.50
2022-09-13T18:24:39.525Z,18.40
2022-09-13T18:27:06.795Z,18.20
2022-09-13T18:29:34.086Z,18.20
2022-09-13T18:32:01.510Z,18.20
2022-09-13T18:34:28.785Z,18.20
2022-09-13T18:36:59.209Z,18.00
2022-09-13T18:39:26.383Z,18.10
2022-09-13T18:41:54.039Z,18.10
2022-09-13T18:44:24.744Z,18.00
2022-09-13T18:46:52.061Z,18.00
2022-09-13T18:49:19.265Z,17.80
2022-09-13T18:51:46.426Z,17.90
2022-09-13T19:19:19.722Z,17.60
2022-09-13T19:21:46.951Z,17.90
2022-09-13T19:24:17.294Z,17.60
2022-09-13T19:26:47.988Z,17.50
2022-09-13T19:29:18.703Z,17.50
2022-09-13T19:31:52.293Z,17.50
2022-09-13T19:34:21.724Z,17.40
2022-09-13T19:36:50.393Z,17.40
2022-09-13T19:39:17.929Z,17.30
2022-09-13T19:41:45.101Z,17.20
2022-09-13T19:44:15.406Z,17.20
2022-09-13T19:46:43.447Z,17.20
2022-09-13T19:49:16.573Z,17.20
2022-09-13T19:51:48.853Z,17.00
2022-09-13T19:54:19.299Z,17.10
2022-09-13T19:56:46.810Z,17.00
2022-09-13T19:59:17.037Z,17.00
2022-09-13T20:01:47.083Z,16.80
2022-09-13T20:04:18.748Z,16.80
2022-09-13T20:06:49.551Z,16.70
2022-09-13T20:09:20.539Z,16.60
2022-09-13T20:11:48.776Z,16.60
2022-09-13T20:14:20.247Z,16.50
2022-09-13T20:16:48.548Z,16.60
2022-09-13T20:19:39.332Z,16.50
2022-09-13T20:22:06.681Z,16.60
2022-09-13T20:24:33.889Z,16.50
2022-09-13T20:27:01.087Z,16.50
2022-09-13T20:29:28.243Z,16.50
2022-09-13T20:31:55.555Z,16.50
2022-09-13T20:34:22.890Z,16.40
2022-09-13T20:36:50.088Z,16.30
2022-09-13T20:39:17.269Z,16.30
2022-09-13T20:41:44.801Z,16.20
2022-09-13T20:44:12.550Z,16.10
2022-09-13T20:46:40.040Z,16.10
2022-09-13T20:49:08.691Z,16.10
2022-09-13T20:51:36.654Z,15.90
2022-09-13T20:54:04.328Z,16.10
2022-09-13T20:56:32.136Z,16.00
2022-09-13T20:58:59.661Z,16.00
2022-09-13T21:01:29.708Z,15.80
2022-09-13T21:03:58.085Z,15.90
2022-09-13T21:06:29.125Z,15.80
2022-09-13T21:08:57.098Z,15.80
2022-09-13T21:11:32.968Z,15.70
2022-09-13T21:14:04.737Z,15.70
2022-09-13T21:16:36.135Z,15.70
2022-09-13T21:19:03.915Z,15.60
2022-09-13T21:21:35.133Z,15.60
2022-09-13T21:24:04.091Z,15.90
2022-09-13T21:26:32.296Z,15.70
2022-09-13T21:29:00.189Z,15.60
2022-09-13T21:31:33.161Z,15.50
2022-09-13T21:34:07.202Z,15.40
2022-09-13T21:36:35.897Z,15.40
2022-09-13T21:39:05.213Z,15.40
2022-09-13T21:41:33.311Z,14.60
2022-09-13T21:44:01.037Z,15.40
2022-09-13T21:46:35.183Z,15.30
2022-09-13T21:49:05.793Z,14.40
2022-09-13T21:51:36.849Z,15.30
2022-09-13T21:54:08.227Z,15.30
2022-09-13T21:56:39.833Z,15.40
2022-09-13T21:59:15.533Z,15.30
2022-09-13T22:01:47.989Z,15.20
2022-09-13T22:04:22.881Z,15.30
2022-09-13T22:06:51.841Z,15.40
2022-09-13T22:09:21.113Z,15.40
2022-09-13T22:11:49.653Z,15.30
2022-09-13T22:14:19.535Z,15.20
2022-09-13T22:16:46.759Z,15.30
2022-09-13T22:19:21.592Z,15.30
2022-09-13T22:21:53.438Z,15.30
2022-09-13T22:24:23.996Z,15.40
2022-09-13T22:26:52.757Z,15.40
2022-09-13T22:29:21.527Z,15.30
2022-09-13T22:31:51.202Z,15.30
2022-09-13T22:34:24.260Z,15.20
2022-09-13T22:36:54.186Z,15.20
2022-09-13T22:39:21.366Z,15.10
2022-09-13T22:41:48.596Z,15.10
2022-09-13T22:44:15.745Z,15.10
2022-09-13T22:46:46.702Z,15.10
2022-09-13T22:49:22.979Z,15.10
2022-09-13T22:51:50.146Z,15.00
2022-09-13T22:54:19.517Z,15.00
2022-09-13T22:56:48.151Z,15.00
2022-09-13T22:59:20.063Z,15.00
2022-09-13T23:01:48.672Z,14.90
2022-09-13T23:04:16.182Z,14.80
2022-09-13T23:06:44.238Z,14.90
2022-09-13T23:09:17.049Z,14.90
2022-09-13T23:11:45.134Z,14.90
2022-09-13T23:14:15.238Z,14.80
2022-09-13T23:16:45.944Z,14.80
2022-09-13T23:19:15.020Z,14.70
2022-09-13T23:21:43.850Z,14.60
2022-09-13T23:24:15.585Z,14.70
2022-09-13T23:26:44.473Z,14.60
2022-09-13T23:29:15.980Z,14.70
2022-09-13T23:31:43.917Z,14.70
2022-09-13T23:34:12.667Z,14.80
2022-09-13T23:36:42.808Z,14.80
2022-09-13T23:39:15.563Z,14.90
2022-09-13T23:41:43.458Z,14.90
2022-09-13T23:44:10.715Z,14.90
2022-09-13T23:46:38.004Z,15.00
2022-09-13T23:49:05.275Z,15.00
2022-09-13T23:51:32.764Z,15.00
2022-09-13T23:54:00.202Z,14.90
2022-09-13T23:56:31.541Z,14.90
2022-09-13T23:59:01.697Z,15.00
